SGEN

Details ICAO SGEN
Name Quiteria
Region Paraguay
Timezone America/Asuncion (UTC-4.0)
Plans Departing 0
Arriving 0
Stats Elevation 279 ft / 85 m (AMSL)
Location -27.300833° -55.915279°
Runways 1
Magnetic Variation 14.703° W
Sunrise 2018-05-25 10:23:35 UTC / 2018-05-25 06:23:35 Local
Sunset 2018-05-25 21:00:31 UTC / 2018-05-25 17:00:31 Local
Advertisement - Login to hide

Runways

ID Width Length Bearing (true) Bearing (mag) Surface Threshold Offset Overrun Length
05 61 ft / 19 m 4,268 ft / 1,301 m 40.00° 54.70° Concrete 0 ft / 0 m 0 ft / 0 m
23 61 ft / 19 m 4,268 ft / 1,301 m 220.00° 234.70° Concrete 0 ft / 0 m 0 ft / 0 m

Map

Weather


0- 5 10 15 20 25 30 35+ Temperature / ° C

Clouds and Precipitation
Forecast for 2018-05-25 12:00 UTC. Updated 2 hours ago

Ground ~20,000 ft ~40,000 ft Winds

METAR

SGEN 251330Z 00000KT CAVOK 15/09 Q1023

TAF

Not found
Warning: Do not use this data for real-world aviation or navigation. No guarantee of current accuracy is given.